Time;durP1;ratioP1;P1;durP2;ratioP2;P2;SDS_P1;SDS_P2;PMS_P1;PMS_P2;Temp;Humidity;BMP_temperature;BMP_pressure;BME280_temperature;BME280_humidity;BME280_pressure;Samples;Min_cycle;Max_cycle;Signal;HPM_P1;HPM_P2
2023/10/20 00:02:58;;;;;;;7.23;5.23;;;11.80;97.20;;;;;;6199081;28;20200;-62
2023/10/20 00:05:59;;;;;;;6.00;4.57;;;11.90;97.40;;;;;;6190097;28;20195;-62
2023/10/20 00:08:59;;;;;;;6.80;5.47;;;11.90;97.50;;;;;;6217115;28;20195;-62
2023/10/20 00:12:00;;;;;;;5.00;4.50;;;11.90;97.40;;;;;;6202843;28;20193;-62
2023/10/20 00:15:01;;;;;;;5.77;4.70;;;12.00;97.20;;;;;;6215790;28;20282;-62
2023/10/20 00:18:03;;;;;;;8.47;4.73;;;12.00;97.10;;;;;;6213514;28;20179;-62
2023/10/20 00:21:04;;;;;;;5.73;4.90;;;12.10;96.90;;;;;;6216588;28;20198;-62
2023/10/20 00:24:05;;;;;;;7.63;4.50;;;12.10;96.90;;;;;;6206239;28;20196;-62
2023/10/20 00:27:05;;;;;;;6.93;4.90;;;12.10;97.00;;;;;;6202378;28;20245;-62
2023/10/20 00:30:09;;;;;;;6.30;4.87;;;12.00;97.60;;;;;;6176026;28;20187;-62
2023/10/20 00:33:10;;;;;;;6.00;4.87;;;12.00;97.20;;;;;;6210006;28;20235;-62
2023/10/20 00:36:11;;;;;;;7.57;5.30;;;12.00;97.10;;;;;;6180306;28;20186;-62
2023/10/20 00:39:12;;;;;;;8.23;5.27;;;12.00;96.90;;;;;;6200723;28;20191;-62
2023/10/20 00:42:13;;;;;;;7.07;5.17;;;12.00;97.30;;;;;;6191892;28;20218;-62
2023/10/20 00:45:14;;;;;;;6.57;5.10;;;12.00;97.10;;;;;;6185119;28;20199;-62
2023/10/20 00:48:15;;;;;;;6.27;5.60;;;12.00;97.10;;;;;;6189436;28;20191;-62
2023/10/20 00:51:16;;;;;;;5.80;5.30;;;12.00;97.10;;;;;;6209949;28;20188;-62
2023/10/20 00:54:17;;;;;;;6.03;5.07;;;12.00;97.10;;;;;;6193002;28;20208;-62
2023/10/20 00:57:19;;;;;;;7.03;4.53;;;12.00;97.30;;;;;;6185491;28;20198;-62
2023/10/20 01:00:20;;;;;;;6.00;5.07;;;12.00;97.20;;;;;;6210657;28;20208;-62
2023/10/20 01:03:22;;;;;;;5.03;4.50;;;12.00;97.20;;;;;;6196379;28;20310;-62
2023/10/20 01:06:23;;;;;;;7.97;4.80;;;12.00;97.20;;;;;;6212440;28;20183;-62
2023/10/20 01:09:27;;;;;;;5.43;4.47;;;12.10;97.00;;;;;;6188252;28;20190;-62
2023/10/20 01:12:28;;;;;;;5.90;5.00;;;12.10;97.20;;;;;;6208161;28;20219;-62
2023/10/20 01:15:29;;;;;;;5.30;4.73;;;12.10;97.10;;;;;;6200088;28;20191;-62
2023/10/20 01:18:30;;;;;;;5.50;4.63;;;12.10;97.00;;;;;;6176353;28;20191;-62
2023/10/20 01:21:31;;;;;;;5.67;4.30;;;12.10;97.00;;;;;;6194491;28;20249;-62
2023/10/20 01:24:32;;;;;;;6.77;5.23;;;12.10;97.00;;;;;;6198179;28;20287;-62
2023/10/20 01:27:33;;;;;;;5.00;4.37;;;12.10;96.90;;;;;;6189822;28;20206;-61
2023/10/20 01:30:34;;;;;;;6.00;4.63;;;12.20;96.80;;;;;;6195913;28;20240;-62
2023/10/20 01:33:34;;;;;;;6.00;4.87;;;12.10;96.70;;;;;;6199013;28;20214;-62
2023/10/20 01:36:37;;;;;;;5.07;4.53;;;12.10;96.80;;;;;;6201221;28;20192;-62
2023/10/20 01:39:38;;;;;;;6.53;5.27;;;12.10;96.80;;;;;;6193671;28;20192;-62
2023/10/20 01:42:40;;;;;;;5.53;4.47;;;12.20;96.70;;;;;;6219167;28;20210;-62
2023/10/20 01:45:41;;;;;;;6.70;5.00;;;12.20;96.80;;;;;;6223380;28;20250;-62
2023/10/20 01:48:41;;;;;;;7.87;4.87;;;12.10;96.90;;;;;;6189186;28;20226;-62
2023/10/20 01:51:42;;;;;;;6.47;4.90;;;12.10;96.80;;;;;;6200665;28;20282;-62
2023/10/20 01:54:43;;;;;;;4.87;4.37;;;12.10;97.00;;;;;;6201525;28;20222;-62
2023/10/20 01:57:43;;;;;;;4.97;4.47;;;12.10;97.00;;;;;;6196862;28;20195;-62
2023/10/20 02:00:48;;;;;;;5.80;4.57;;;12.10;97.00;;;;;;6226887;28;20210;-62
2023/10/20 02:03:49;;;;;;;5.67;5.17;;;12.00;97.10;;;;;;6224088;28;20275;-62
2023/10/20 02:06:50;;;;;;;5.37;4.87;;;12.10;97.30;;;;;;6209486;28;20192;-62
2023/10/20 02:09:51;;;;;;;5.83;5.23;;;12.10;97.30;;;;;;6177031;28;20198;-62
2023/10/20 02:12:52;;;;;;;4.83;4.40;;;12.10;97.40;;;;;;6188783;28;20219;-62
2023/10/20 02:15:52;;;;;;;5.37;4.70;;;12.00;97.40;;;;;;6193642;28;20187;-62
2023/10/20 02:18:53;;;;;;;7.33;5.20;;;12.00;97.50;;;;;;6196468;28;20199;-62
2023/10/20 02:21:55;;;;;;;5.33;4.57;;;12.00;97.50;;;;;;6210924;28;20213;-62
2023/10/20 02:24:55;;;;;;;5.37;4.80;;;12.00;97.40;;;;;;6189188;28;20234;-62
2023/10/20 02:27:56;;;;;;;5.90;5.30;;;12.00;97.60;;;;;;6194684;28;20190;-62
2023/10/20 02:30:57;;;;;;;6.50;4.43;;;12.00;97.70;;;;;;6206116;28;20188;-62
2023/10/20 02:33:57;;;;;;;5.23;4.60;;;12.00;98.00;;;;;;6228334;28;20210;-62
2023/10/20 02:36:59;;;;;;;5.93;5.37;;;12.00;97.60;;;;;;6213593;28;20195;-62
2023/10/20 02:40:04;;;;;;;8.30;5.10;;;12.00;97.80;;;;;;6177207;28;20187;-62
2023/10/20 02:43:05;;;;;;;5.60;5.10;;;12.00;97.70;;;;;;6215125;28;20192;-62
2023/10/20 02:46:07;;;;;;;5.23;4.73;;;12.00;97.30;;;;;;6192563;28;20278;-62
2023/10/20 02:49:07;;;;;;;5.30;4.80;;;11.90;97.40;;;;;;6208334;28;20200;-62
2023/10/20 02:52:13;;;;;;;5.37;4.60;;;12.00;97.20;;;;;;6205070;28;20218;-62
2023/10/20 02:55:13;;;;;;;6.53;5.07;;;11.90;97.60;;;;;;6198165;28;20191;-62
2023/10/20 02:58:14;;;;;;;5.93;4.70;;;12.00;97.50;;;;;;6202840;28;20194;-62
2023/10/20 03:01:17;;;;;;;6.97;4.53;;;12.00;97.70;;;;;;6193015;28;20190;-62
2023/10/20 03:04:19;;;;;;;5.77;5.17;;;12.00;97.60;;;;;;6210157;28;20197;-62
2023/10/20 03:07:24;;;;;;;5.90;5.27;;;12.00;97.50;;;;;;6197211;28;20205;-62
2023/10/20 03:10:28;;;;;;;10.47;5.93;;;12.00;97.50;;;;;;6187118;28;20226;-62
2023/10/20 03:13:29;;;;;;;5.83;5.23;;;12.00;97.30;;;;;;6209705;28;20257;-62
2023/10/20 03:16:29;;;;;;;6.93;5.20;;;12.00;97.50;;;;;;6198303;28;20188;-62
2023/10/20 03:19:30;;;;;;;8.00;5.27;;;12.00;97.30;;;;;;6193448;28;20182;-62
2023/10/20 03:22:31;;;;;;;5.60;4.57;;;12.00;97.40;;;;;;6200912;28;20199;-62
2023/10/20 03:25:33;;;;;;;5.50;5.00;;;11.90;97.60;;;;;;6201137;28;20237;-62
2023/10/20 03:28:34;;;;;;;5.80;4.93;;;11.90;97.80;;;;;;6221889;28;20229;-62
2023/10/20 03:31:35;;;;;;;8.67;4.80;;;12.00;97.70;;;;;;6199214;28;20205;-62
2023/10/20 03:34:35;;;;;;;5.40;4.90;;;11.90;97.70;;;;;;6198624;28;20203;-61
2023/10/20 03:37:38;;;;;;;5.53;4.90;;;11.90;97.70;;;;;;6188931;28;20182;-61
2023/10/20 03:40:40;;;;;;;5.63;5.10;;;12.00;97.70;;;;;;6212444;28;20205;-61
2023/10/20 03:43:41;;;;;;;5.43;4.83;;;12.00;97.70;;;;;;6185060;28;20226;-61
2023/10/20 03:46:56;;;;;;;5.43;4.60;;;12.00;97.60;;;;;;6207426;28;20205;-62
2023/10/20 03:50:00;;;;;;;5.70;4.73;;;12.00;97.90;;;;;;6214397;28;20553;-63
2023/10/20 03:53:01;;;;;;;6.23;4.63;;;12.00;98.00;;;;;;6192226;28;20293;-62
2023/10/20 03:56:04;;;;;;;5.07;4.57;;;11.90;98.20;;;;;;6202960;28;20259;-62
2023/10/20 03:59:05;;;;;;;5.10;3.83;;;11.90;97.80;;;;;;6201391;28;20187;-62
2023/10/20 04:02:06;;;;;;;5.80;5.17;;;12.00;97.90;;;;;;6214490;28;20205;-62
2023/10/20 04:05:07;;;;;;;5.03;4.63;;;12.00;97.50;;;;;;6194805;28;20186;-62
2023/10/20 04:08:08;;;;;;;4.73;4.20;;;11.90;97.60;;;;;;6201245;28;20187;-61
2023/10/20 04:11:09;;;;;;;4.63;4.13;;;11.90;97.90;;;;;;6190647;28;20194;-61
2023/10/20 04:14:10;;;;;;;6.07;4.33;;;12.00;98.00;;;;;;6197555;28;20217;-62
2023/10/20 04:17:11;;;;;;;4.63;4.23;;;12.00;98.00;;;;;;6206607;28;20214;-62
2023/10/20 04:20:18;;;;;;;7.23;4.47;;;12.00;97.90;;;;;;6196257;28;20191;-63
2023/10/20 04:23:18;;;;;;;5.20;4.70;;;12.00;97.90;;;;;;6206821;28;20198;-62
2023/10/20 04:26:20;;;;;;;4.83;4.33;;;12.00;98.10;;;;;;6196079;28;20243;-62
2023/10/20 04:58:34;;;;;;;5.13;4.47;;;12.10;97.90;;;;;;6226939;28;20188;-62
2023/10/20 05:01:47;;;;;;;6.00;4.50;;;12.10;97.90;;;;;;6184115;28;20189;-61
2023/10/20 05:04:50;;;;;;;4.80;4.30;;;12.10;97.80;;;;;;6207130;28;20216;-61
2023/10/20 05:07:58;;;;;;;7.07;4.83;;;12.10;97.80;;;;;;6191228;28;20192;-61
2023/10/20 05:10:59;;;;;;;5.37;4.73;;;12.10;97.60;;;;;;6204319;28;20295;-61
2023/10/20 05:14:00;;;;;;;5.67;4.40;;;12.10;97.70;;;;;;6192718;28;20211;-61
2023/10/20 05:17:01;;;;;;;5.87;5.27;;;12.10;98.10;;;;;;6200637;28;20190;-62
2023/10/20 05:20:05;;;;;;;5.37;4.87;;;12.10;98.30;;;;;;6216154;28;20301;-61
2023/10/20 05:23:06;;;;;;;5.33;4.83;;;12.10;98.20;;;;;;6216745;28;20242;-61
2023/10/20 05:26:09;;;;;;;4.93;4.13;;;12.10;98.00;;;;;;6206533;28;20237;-62
2023/10/20 05:29:11;;;;;;;5.70;5.17;;;12.20;98.10;;;;;;6212512;28;20188;-61
2023/10/20 05:32:12;;;;;;;5.90;4.40;;;12.20;98.30;;;;;;6204204;28;20192;-62
2023/10/20 05:35:13;;;;;;;5.37;4.87;;;12.20;98.10;;;;;;6192098;28;20246;-62
2023/10/20 05:38:14;;;;;;;5.83;5.23;;;12.20;98.10;;;;;;6195344;28;20206;-61
2023/10/20 05:41:14;;;;;;;6.77;5.53;;;12.20;98.00;;;;;;6197361;28;20191;-61
2023/10/20 05:44:17;;;;;;;6.20;5.60;;;12.20;98.40;;;;;;6210286;28;20282;-62
2023/10/20 05:47:18;;;;;;;6.37;5.77;;;12.20;98.70;;;;;;6194696;28;20199;-62
2023/10/20 05:50:18;;;;;;;7.20;6.00;;;12.30;98.60;;;;;;6203923;28;20187;-61
2023/10/20 05:53:19;;;;;;;8.40;6.30;;;12.20;98.90;;;;;;6213960;28;20202;-61
2023/10/20 05:56:20;;;;;;;6.87;5.73;;;12.30;98.50;;;;;;6194473;28;20190;-61
2023/10/20 05:59:21;;;;;;;6.33;5.67;;;12.30;98.40;;;;;;6194531;28;20246;-61
2023/10/20 06:02:22;;;;;;;7.33;5.80;;;12.30;98.40;;;;;;6180365;28;20191;-61
2023/10/20 06:05:23;;;;;;;6.83;6.13;;;12.30;98.50;;;;;;6214201;28;20192;-61
2023/10/20 06:08:24;;;;;;;6.60;5.70;;;12.30;98.70;;;;;;6190143;28;20202;-62
2023/10/20 06:11:24;;;;;;;7.20;5.70;;;12.30;98.70;;;;;;6188429;28;20195;-61
2023/10/20 06:14:26;;;;;;;7.47;5.80;;;12.30;99.20;;;;;;6189343;28;20253;-62
2023/10/20 06:17:27;;;;;;;6.03;5.43;;;12.30;99.00;;;;;;6225777;28;20241;-62
2023/10/20 06:20:28;;;;;;;6.17;5.57;;;12.40;98.60;;;;;;6196813;28;20215;-61
2023/10/20 06:23:30;;;;;;;6.37;5.20;;;12.40;98.50;;;;;;6185710;28;20199;-62
2023/10/20 06:26:30;;;;;;;7.23;5.07;;;12.50;98.70;;;;;;6201093;28;20230;-61
2023/10/20 06:32:42;;;;;;;5.03;4.53;;;12.50;98.70;;;;;;6220654;28;20220;-61
2023/10/20 06:35:53;;;;;;;6.03;5.13;;;12.50;98.60;;;;;;6209000;28;20274;-62
2023/10/20 06:38:54;;;;;;;8.93;5.73;;;12.50;98.30;;;;;;6214293;28;20188;-61
2023/10/20 06:41:55;;;;;;;5.47;4.93;;;12.50;98.50;;;;;;6191720;28;20190;-61
2023/10/20 06:44:55;;;;;;;6.07;5.43;;;12.50;98.40;;;;;;6206087;28;20191;-62
2023/10/20 06:47:57;;;;;;;7.27;5.47;;;12.50;98.40;;;;;;6180043;28;20203;-62
2023/10/20 06:50:58;;;;;;;7.23;6.10;;;12.50;98.30;;;;;;6194232;28;20195;-62
2023/10/20 06:53:59;;;;;;;7.03;5.70;;;12.50;98.30;;;;;;6201110;28;20245;-62
2023/10/20 06:57:00;;;;;;;6.50;5.37;;;12.50;98.20;;;;;;6201890;28;20219;-61
2023/10/20 07:00:03;;;;;;;6.87;5.90;;;12.60;98.30;;;;;;6208482;28;20195;-61
2023/10/20 07:03:04;;;;;;;8.07;6.20;;;12.60;98.20;;;;;;6207434;28;20193;-62
2023/10/20 07:06:09;;;;;;;7.50;5.87;;;12.60;98.20;;;;;;6217064;28;20196;-62
2023/10/20 07:09:13;;;;;;;9.03;5.53;;;12.70;98.10;;;;;;6199486;28;20199;-62
2023/10/20 07:12:15;;;;;;;6.93;6.10;;;12.70;98.00;;;;;;6213684;28;20254;-62
2023/10/20 07:15:16;;;;;;;7.97;6.03;;;12.70;98.00;;;;;;6184663;28;20288;-62
2023/10/20 07:18:17;;;;;;;8.23;6.50;;;12.70;98.00;;;;;;6203291;28;20195;-62
2023/10/20 07:21:17;;;;;;;9.77;6.70;;;12.80;98.40;;;;;;6199081;28;20188;-62
2023/10/20 07:24:18;;;;;;;7.47;6.10;;;12.80;98.40;;;;;;6187920;28;20203;-62
2023/10/20 07:27:21;;;;;;;9.70;6.63;;;12.80;98.10;;;;;;6192490;28;20234;-62
2023/10/20 07:30:21;;;;;;;9.30;6.07;;;12.90;98.20;;;;;;6195931;28;20199;-62
2023/10/20 07:33:22;;;;;;;7.20;5.87;;;12.90;98.10;;;;;;6192739;28;20213;-63
2023/10/20 07:36:23;;;;;;;8.33;6.53;;;13.00;98.20;;;;;;6190340;28;20273;-62
2023/10/20 07:39:24;;;;;;;8.90;6.73;;;13.00;98.20;;;;;;6186727;28;20196;-62
2023/10/20 07:42:25;;;;;;;6.93;6.23;;;13.10;98.20;;;;;;6180089;28;20195;-62
2023/10/20 07:45:26;;;;;;;10.10;6.23;;;13.10;97.70;;;;;;6198058;28;20199;-62
2023/10/20 07:48:27;;;;;;;8.27;6.00;;;13.10;98.20;;;;;;6194837;28;20187;-62
2023/10/20 07:51:28;;;;;;;9.17;7.40;;;13.10;97.70;;;;;;6208990;28;20226;-63
2023/10/20 07:54:29;;;;;;;7.93;6.80;;;13.20;97.70;;;;;;6175801;28;20269;-62
2023/10/20 07:57:30;;;;;;;7.70;6.53;;;13.30;97.70;;;;;;6205687;28;20201;-62
2023/10/20 08:00:31;;;;;;;7.30;5.93;;;13.30;98.20;;;;;;6188483;28;20195;-62
2023/10/20 08:03:32;;;;;;;8.87;7.50;;;13.30;98.00;;;;;;6214047;28;20201;-62
2023/10/20 08:06:33;;;;;;;12.63;8.43;;;13.40;97.70;;;;;;6222335;28;20188;-63
2023/10/20 08:09:34;;;;;;;9.60;8.17;;;13.50;97.50;;;;;;6183860;28;20201;-63
2023/10/20 08:12:34;;;;;;;15.03;9.60;;;13.50;97.70;;;;;;6201390;28;20307;-63
2023/10/20 08:15:37;;;;;;;12.77;8.90;;;13.60;97.50;;;;;;6194560;28;20191;-63
2023/10/20 08:18:37;;;;;;;16.13;10.37;;;13.70;97.30;;;;;;6193085;28;20199;-63
2023/10/20 08:21:38;;;;;;;11.43;8.57;;;13.90;97.60;;;;;;6209755;28;20250;-62
2023/10/20 08:24:40;;;;;;;15.03;9.33;;;;;;;;;;6191122;28;20211;-62
2023/10/20 08:27:41;;;;;;;13.93;9.73;;;;;;;;;;6217691;28;20214;-62
2023/10/20 08:30:42;;;;;;;14.70;9.33;;;;;;;;;;6224211;28;20229;-63
2023/10/20 08:33:43;;;;;;;11.37;9.10;;;;;;;;;;6209269;28;20215;-62
2023/10/20 08:36:44;;;;;;;13.77;8.97;;;13.90;97.60;;;;;;6228911;28;20210;-62
2023/10/20 08:39:45;;;;;;;9.90;7.63;;;14.60;95.80;;;;;;6202611;28;20198;-62
2023/10/20 08:42:46;;;;;;;12.93;8.43;;;14.60;95.30;;;;;;6207255;28;20195;-63
2023/10/20 08:45:47;;;;;;;13.03;8.07;;;;;;;;;;6229936;28;20194;-62
2023/10/20 08:48:48;;;;;;;8.80;7.10;;;;;;;;;;6197099;28;20198;-62
2023/10/20 08:51:49;;;;;;;8.83;6.17;;;14.70;95.40;;;;;;6227470;28;20302;-63
2023/10/20 08:54:52;;;;;;;10.63;5.80;;;;;;;;;;6183589;28;20215;-62
2023/10/20 08:57:53;;;;;;;9.50;5.27;;;;;;;;;;6227382;28;20188;-62
2023/10/20 09:00:55;;;;;;;7.77;5.77;;;;;;;;;;6215786;28;20202;-62
2023/10/20 09:03:56;;;;;;;12.33;5.73;;;;;;;;;;6205382;28;20214;-62
2023/10/20 09:06:59;;;;;;;13.17;5.37;;;;;;;;;;6202601;28;20199;-62
2023/10/20 09:10:00;;;;;;;11.20;5.03;;;;;;;;;;6214205;28;20192;-62
2023/10/20 09:13:01;;;;;;;10.67;4.47;;;;;;;;;;6199843;28;20269;-62
2023/10/20 09:16:07;;;;;;;10.47;6.00;;;;;;;;;;6201917;28;20205;-62
2023/10/20 09:19:12;;;;;;;8.47;6.03;;;;;;;;;;6231111;28;20192;-62
2023/10/20 09:22:13;;;;;;;8.93;5.57;;;;;;;;;;6224967;28;20194;-63
2023/10/20 09:25:14;;;;;;;13.23;8.60;;;;;;;;;;6212239;28;20329;-63
2023/10/20 09:28:17;;;;;;;11.13;7.20;;;24.00;50.00;;;;;;6226954;28;20225;-63
2023/10/20 09:31:18;;;;;;;11.80;7.17;;;16.30;94.00;;;;;;6204198;28;20252;-63
2023/10/20 09:34:19;;;;;;;11.23;7.37;;;16.40;94.40;;;;;;6220530;28;20306;-63
2023/10/20 09:37:24;;;;;;;11.10;6.50;;;;;;;;;;6199298;28;20187;-63
2023/10/20 09:40:25;;;;;;;12.47;7.10;;;16.60;94.80;;;;;;6221375;28;20183;-63
2023/10/20 09:43:35;;;;;;;9.93;6.90;;;16.80;94.30;;;;;;6225922;28;20187;-63
2023/10/20 09:46:55;;;;;;;9.53;6.77;;;16.90;94.10;;;;;;6214161;28;20191;-63
2023/10/20 09:49:57;;;;;;;10.23;6.87;;;17.00;94.00;;;;;;6220741;28;20214;-63
2023/10/20 09:52:59;;;;;;;11.33;7.17;;;17.00;94.20;;;;;;6207934;28;20214;-63
2023/10/20 09:56:01;;;;;;;9.80;7.93;;;17.10;94.30;;;;;;6212204;28;20183;-62
2023/10/20 09:59:05;;;;;;;12.80;6.63;;;17.20;94.40;;;;;;6196386;28;20218;-62
2023/10/20 10:02:06;;;;;;;10.63;6.67;;;17.30;94.20;;;;;;6221507;28;20249;-62
2023/10/20 10:05:10;;;;;;;8.60;6.13;;;17.40;94.30;;;;;;6225199;28;20239;-62
2023/10/20 10:08:11;;;;;;;9.57;6.37;;;17.50;94.50;;;;;;6205561;28;20198;-62
2023/10/20 10:11:26;;;;;;;9.70;7.27;;;17.50;94.50;;;;;;6220492;28;20185;-62
2023/10/20 10:14:27;;;;;;;6.97;5.60;;;17.60;94.50;;;;;;6208861;28;20219;-62
2023/10/20 10:17:28;;;;;;;13.43;5.83;;;17.60;94.40;;;;;;6186410;28;20222;-62
2023/10/20 10:20:29;;;;;;;7.33;5.70;;;17.60;94.70;;;;;;6190373;28;20195;-62
2023/10/20 10:23:29;;;;;;;8.47;6.10;;;17.50;94.60;;;;;;6194433;28;20199;-61
2023/10/20 10:26:30;;;;;;;7.00;5.57;;;17.50;94.80;;;;;;6206361;28;20241;-62
2023/10/20 10:29:53;;;;;;;8.37;5.33;;;17.50;94.40;;;;;;6187592;28;20199;-62
2023/10/20 10:32:54;;;;;;;9.87;5.30;;;17.50;94.30;;;;;;6228318;28;20200;-63
2023/10/20 10:36:04;;;;;;;8.37;5.60;;;17.50;94.10;;;;;;6194496;28;20233;-63
2023/10/20 10:39:05;;;;;;;12.90;5.07;;;17.50;93.70;;;;;;6217944;28;20187;-61
2023/10/20 10:42:06;;;;;;;8.53;5.10;;;17.70;93.20;;;;;;6179357;28;20202;-63
2023/10/20 10:45:23;;;;;;;6.13;3.83;;;17.80;92.30;;;;;;6218220;28;20211;-64
2023/10/20 10:48:27;;;;;;;11.07;4.60;;;17.80;91.50;;;;;;6221867;28;20375;-62
2023/10/20 10:51:28;;;;;;;11.53;4.60;;;18.00;90.60;;;;;;6193667;28;20227;-62
2023/10/20 10:54:31;;;;;;;7.70;4.63;;;18.00;88.90;;;;;;6190405;28;20268;-62
2023/10/20 10:57:33;;;;;;;10.50;4.47;;;18.00;89.20;;;;;;6207465;28;20315;-62
2023/10/20 11:00:34;;;;;;;10.07;4.23;;;18.10;89.40;;;;;;6204099;28;20227;-63
2023/10/20 11:03:35;;;;;;;11.77;5.43;;;18.10;89.50;;;;;;6228177;28;20197;-62
2023/10/20 11:06:38;;;;;;;9.83;4.40;;;24.00;50.00;;;;;;6189488;28;20203;-62
2023/10/20 11:09:39;;;;;;;11.57;4.47;;;18.20;86.40;;;;;;6209317;28;20199;-63
2023/10/20 11:12:49;;;;;;;9.70;4.50;;;18.30;86.50;;;;;;6198906;28;20298;-62
2023/10/20 11:15:50;;;;;;;10.97;4.97;;;18.30;86.30;;;;;;6212762;28;20187;-62
2023/10/20 11:18:51;;;;;;;9.90;4.17;;;18.40;85.70;;;;;;6203622;28;20197;-62
2023/10/20 11:21:52;;;;;;;9.50;4.23;;;;;;;;;;6185022;28;20183;-62
2023/10/20 11:24:53;;;;;;;10.27;4.17;;;;;;;;;;6205869;28;20226;-62
2023/10/20 11:27:55;;;;;;;10.50;4.00;;;;;;;;;;6227633;28;20285;-62
2023/10/20 11:30:56;;;;;;;7.00;3.87;;;;;;;;;;6206327;28;20195;-62
2023/10/20 11:33:58;;;;;;;11.13;3.60;;;;;;;;;;6211334;28;20221;-62
2023/10/20 11:37:00;;;;;;;9.70;4.40;;;;;;;;;;6205406;28;20187;-62
2023/10/20 11:40:01;;;;;;;12.57;4.07;;;;;;;;;;6204052;28;20225;-61
2023/10/20 11:43:03;;;;;;;13.63;4.20;;;;;;;;;;6200622;28;20186;-62
2023/10/20 11:46:06;;;;;;;10.83;4.07;;;;;;;;;;6210933;28;20183;-63
2023/10/20 11:49:07;;;;;;;13.87;4.20;;;;;;;;;;6205152;28;20196;-63
2023/10/20 11:52:08;;;;;;;9.13;3.40;;;;;;;;;;6198466;28;20198;-62
2023/10/20 11:55:10;;;;;;;10.83;3.97;;;;;;;;;;6207412;28;20219;-63
2023/10/20 11:58:11;;;;;;;10.20;4.07;;;;;;;;;;6226959;28;20197;-63
2023/10/20 12:01:12;;;;;;;10.20;3.77;;;;;;;;;;6211403;28;20190;-63
2023/10/20 12:04:13;;;;;;;13.50;4.40;;;;;;;;;;6209347;28;20202;-63
2023/10/20 12:07:14;;;;;;;18.23;5.07;;;;;;;;;;6231266;28;20221;-63
2023/10/20 12:10:15;;;;;;;13.73;4.00;;;;;;;;;;6211361;28;20190;-63
2023/10/20 12:13:16;;;;;;;15.47;4.53;;;;;;;;;;6207503;28;20225;-63
2023/10/20 12:16:19;;;;;;;12.63;5.30;;;;;;;;;;6225351;28;20193;-63
2023/10/20 12:19:20;;;;;;;11.80;4.77;;;;;;;;;;6213231;28;20210;-62
2023/10/20 12:22:21;;;;;;;12.13;4.30;;;;;;;;;;6206060;28;20216;-62
2023/10/20 12:25:22;;;;;;;7.33;3.83;;;;;;;;;;6219242;28;20230;-63
2023/10/20 12:28:23;;;;;;;14.10;4.83;;;;;;;;;;6211307;28;20183;-62
2023/10/20 12:31:25;;;;;;;12.30;3.97;;;;;;;;;;6205623;28;20190;-62
2023/10/20 12:34:27;;;;;;;11.87;4.80;;;;;;;;;;6215973;28;20210;-63
2023/10/20 12:37:28;;;;;;;10.37;4.40;;;;;;;;;;6203202;28;20215;-62
2023/10/20 12:40:30;;;;;;;10.10;3.67;;;;;;;;;;6199322;28;20190;-62
2023/10/20 12:43:30;;;;;;;10.17;4.73;;;23.30;62.00;;;;;;6206172;28;20194;-63
2023/10/20 12:46:31;;;;;;;13.40;4.47;;;24.20;62.20;;;;;;6202602;28;20203;-62
2023/10/20 12:49:32;;;;;;;12.37;4.60;;;23.90;63.20;;;;;;6179526;28;20199;-62
2023/10/20 12:52:32;;;;;;;14.80;4.87;;;23.60;62.60;;;;;;6204733;28;20230;-62
2023/10/20 12:55:33;;;;;;;11.07;4.80;;;23.60;63.60;;;;;;6185408;28;20219;-62
2023/10/20 12:58:38;;;;;;;10.77;4.73;;;23.60;64.20;;;;;;6182259;28;20192;-63
2023/10/20 13:01:38;;;;;;;11.67;4.57;;;23.80;64.70;;;;;;6208936;28;20196;-63
2023/10/20 13:04:39;;;;;;;13.43;4.60;;;23.80;62.80;;;;;;6203735;28;20249;-63
2023/10/20 13:07:40;;;;;;;13.00;4.97;;;23.90;62.20;;;;;;6223050;28;20203;-63
2023/10/20 13:10:41;;;;;;;12.10;4.63;;;23.90;62.50;;;;;;6189657;28;20290;-62
2023/10/20 13:13:42;;;;;;;14.13;4.93;;;;;;;;;;6201093;28;20218;-63
2023/10/20 13:16:43;;;;;;;11.13;4.27;;;24.30;62.60;;;;;;6197904;28;20201;-61
2023/10/20 13:19:45;;;;;;;13.03;4.17;;;;;;;;;;6180035;28;20218;-61
2023/10/20 13:22:46;;;;;;;14.83;4.93;;;24.40;61.90;;;;;;6192795;28;20265;-63
2023/10/20 13:25:47;;;;;;;13.20;4.90;;;25.00;60.70;;;;;;6199811;28;20291;-62
2023/10/20 13:28:47;;;;;;;22.07;5.13;;;25.00;59.10;;;;;;6181646;28;20269;-62
2023/10/20 13:31:48;;;;;;;12.30;5.03;;;25.20;57.70;;;;;;6209788;28;20238;-62
2023/10/20 13:34:49;;;;;;;13.87;5.10;;;25.00;56.50;;;;;;6173430;28;20326;-62
2023/10/20 13:37:50;;;;;;;16.03;5.63;;;;;;;;;;6201071;28;20195;-62
2023/10/20 13:40:51;;;;;;;16.17;5.47;;;24.50;57.20;;;;;;6221569;28;20195;-61
2023/10/20 13:43:52;;;;;;;10.33;4.90;;;23.90;56.60;;;;;;6201904;28;20226;-62
2023/10/20 13:46:53;;;;;;;18.03;5.07;;;23.60;57.40;;;;;;6201621;28;20207;-62
2023/10/20 13:49:53;;;;;;;16.33;5.00;;;23.30;58.40;;;;;;6205695;28;20209;-62
2023/10/20 13:52:54;;;;;;;19.47;6.03;;;22.90;58.50;;;;;;6199071;28;20222;-63
2023/10/20 13:55:55;;;;;;;20.77;5.40;;;22.70;58.30;;;;;;6185516;28;20192;-62
2023/10/20 13:58:55;;;;;;;15.03;5.47;;;22.60;59.50;;;;;;6197146;28;20199;-62
2023/10/20 14:01:56;;;;;;;14.23;5.20;;;22.60;60.30;;;;;;6196681;28;20203;-62
2023/10/20 14:04:57;;;;;;;13.43;4.90;;;22.60;60.30;;;;;;6214830;28;20190;-62
2023/10/20 14:07:59;;;;;;;16.87;5.67;;;22.60;61.40;;;;;;6207217;28;20201;-62
2023/10/20 14:11:00;;;;;;;15.27;4.83;;;22.50;62.20;;;;;;6218921;28;20242;-62
2023/10/20 14:14:01;;;;;;;12.47;4.53;;;22.30;62.60;;;;;;6197794;28;20214;-62
2023/10/20 14:17:09;;;;;;;18.27;5.33;;;22.20;61.60;;;;;;6196072;28;20267;-62
2023/10/20 14:20:10;;;;;;;13.90;5.30;;;;;;;;;;6178420;28;20200;-62
2023/10/20 14:23:11;;;;;;;11.97;5.10;;;22.00;62.70;;;;;;6220540;28;20195;-62
2023/10/20 14:26:12;;;;;;;16.33;5.40;;;;;;;;;;6196734;28;20271;-62
2023/10/20 14:29:15;;;;;;;11.97;5.77;;;;;;;;;;6198672;28;20192;-63
2023/10/20 14:32:16;;;;;;;20.37;6.73;;;;;;;;;;6194825;28;20210;-61
2023/10/20 14:35:18;;;;;;;11.33;5.13;;;;;;;;;;6216538;28;20279;-62
2023/10/20 14:38:19;;;;;;;17.10;6.23;;;;;;;;;;6204757;28;20209;-62
2023/10/20 14:41:20;;;;;;;16.07;6.23;;;;;;;;;;6212601;28;20187;-62
2023/10/20 14:44:21;;;;;;;18.80;5.43;;;;;;;;;;6189648;28;20258;-62
2023/10/20 14:47:23;;;;;;;15.67;5.77;;;;;;;;;;6193512;28;20276;-61
2023/10/20 14:50:25;;;;;;;14.07;5.40;;;;;;;;;;6212612;28;20216;-62
2023/10/20 14:53:26;;;;;;;17.50;5.63;;;;;;;;;;6192423;28;20302;-62
2023/10/20 14:56:27;;;;;;;17.27;5.87;;;;;;;;;;6217481;28;20274;-62
2023/10/20 14:59:28;;;;;;;14.57;6.80;;;;;;;;;;6194656;28;20192;-62
2023/10/20 15:02:29;;;;;;;13.80;5.77;;;;;;;;;;6210671;28;20277;-62
2023/10/20 15:05:30;;;;;;;16.20;5.97;;;;;;;;;;6210658;28;20192;-62
2023/10/20 15:08:33;;;;;;;16.27;5.30;;;21.00;66.20;;;;;;6219288;28;20274;-62
2023/10/20 15:11:33;;;;;;;19.03;5.77;;;20.60;66.00;;;;;;6191621;28;20215;-62
2023/10/20 15:14:34;;;;;;;17.17;5.37;;;20.60;65.80;;;;;;6197979;28;20227;-62
2023/10/20 15:17:35;;;;;;;15.83;5.50;;;20.50;66.00;;;;;;6198733;28;20198;-63
2023/10/20 15:20:40;;;;;;;17.47;5.43;;;20.50;66.10;;;;;;6198844;28;20188;-62
2023/10/20 15:23:41;;;;;;;15.80;5.00;;;20.50;64.80;;;;;;6201901;28;20229;-63
2023/10/20 15:26:45;;;;;;;14.57;5.37;;;20.50;64.20;;;;;;6187671;28;20263;-62
2023/10/20 15:29:45;;;;;;;16.50;5.20;;;20.50;64.80;;;;;;6180954;28;20204;-62
2023/10/20 15:32:46;;;;;;;21.43;4.90;;;20.50;65.10;;;;;;6214539;28;20268;-62
2023/10/20 15:35:47;;;;;;;14.23;5.37;;;20.40;64.80;;;;;;6192645;28;20249;-63
2023/10/20 15:38:48;;;;;;;17.43;5.20;;;20.40;64.20;;;;;;6195196;28;20266;-62
2023/10/20 15:41:49;;;;;;;10.20;4.47;;;20.30;64.70;;;;;;6191783;28;20187;-63
2023/10/20 15:44:50;;;;;;;13.10;4.63;;;20.20;65.60;;;;;;6208252;28;20263;-63
2023/10/20 15:47:51;;;;;;;12.10;5.20;;;20.10;66.20;;;;;;6202891;28;20227;-63
2023/10/20 15:50:52;;;;;;;13.57;4.70;;;;;;;;;;6187552;28;20239;-63
2023/10/20 15:53:53;;;;;;;20.07;6.97;;;;;;;;;;6215109;28;20216;-63
2023/10/20 15:56:54;;;;;;;15.47;5.90;;;;;;;;;;6225106;28;20225;-63
2023/10/20 15:59:56;;;;;;;20.63;5.23;;;;;;;;;;6200155;28;20234;-63
2023/10/20 16:02:57;;;;;;;12.67;4.87;;;;;;;;;;6215448;28;20202;-63
2023/10/20 16:05:58;;;;;;;19.67;5.10;;;19.50;67.90;;;;;;6200982;28;20199;-62
2023/10/20 16:08:59;;;;;;;14.27;4.53;;;;;;;;;;6182904;28;20289;-63
2023/10/20 16:12:00;;;;;;;24.43;6.40;;;;;;;;;;6216901;28;20195;-62
2023/10/20 16:15:01;;;;;;;18.67;6.80;;;;;;;;;;6214876;28;20218;-63
2023/10/20 16:18:02;;;;;;;12.13;5.93;;;;;;;;;;6199794;28;20188;-63
2023/10/20 16:21:03;;;;;;;11.03;5.97;;;;;;;;;;6196259;28;20247;-63
2023/10/20 16:24:05;;;;;;;13.37;6.07;;;;;;;;;;6202524;28;20209;-63
2023/10/20 16:27:05;;;;;;;18.03;7.40;;;18.80;71.60;;;;;;6201807;28;20250;-62
2023/10/20 16:30:08;;;;;;;15.80;6.80;;;18.50;73.00;;;;;;6204522;28;20202;-63
2023/10/20 16:33:09;;;;;;;14.43;6.80;;;18.40;73.50;;;;;;6195707;28;20211;-63
2023/10/20 16:36:10;;;;;;;16.27;6.93;;;;;;;;;;6177205;28;20198;-63
2023/10/20 16:39:12;;;;;;;18.37;6.93;;;;;;;;;;6197843;28;20201;-62
2023/10/20 16:42:13;;;;;;;20.43;7.57;;;18.20;74.40;;;;;;6196713;28;20189;-62
2023/10/20 16:45:15;;;;;;;14.20;7.07;;;18.00;75.20;;;;;;6182153;28;20246;-62